sensor_id;sensor_type;location;lat;lon;timestamp;P1;durP1;ratioP1;P2;durP2;ratioP2
40827;SDS011;26549;50.918;5.338;2022-12-17T00:01:55;59.05;;;27.98;;
40827;SDS011;26549;50.918;5.338;2022-12-17T00:04:40;51.72;;;24.83;;
40827;SDS011;26549;50.918;5.338;2022-12-17T00:07:25;58.20;;;25.33;;
40827;SDS011;26549;50.918;5.338;2022-12-17T00:10:11;54.67;;;26.48;;
40827;SDS011;26549;50.918;5.338;2022-12-17T00:12:55;60.95;;;28.30;;
40827;SDS011;26549;50.918;5.338;2022-12-17T00:15:40;52.17;;;26.42;;
40827;SDS011;26549;50.918;5.338;2022-12-17T00:18:25;62.17;;;30.02;;
40827;SDS011;26549;50.918;5.338;2022-12-17T00:21:09;56.33;;;28.23;;
40827;SDS011;26549;50.918;5.338;2022-12-17T00:23:54;57.05;;;25.58;;
40827;SDS011;26549;50.918;5.338;2022-12-17T00:26:39;61.33;;;27.17;;
40827;SDS011;26549;50.918;5.338;2022-12-17T00:29:24;60.13;;;26.63;;
40827;SDS011;26549;50.918;5.338;2022-12-17T00:32:10;52.80;;;25.25;;
40827;SDS011;26549;50.918;5.338;2022-12-17T00:37:38;57.47;;;25.17;;
40827;SDS011;26549;50.918;5.338;2022-12-17T00:40:22;49.67;;;26.02;;
40827;SDS011;26549;50.918;5.338;2022-12-17T00:43:08;49.50;;;24.63;;
40827;SDS011;26549;50.918;5.338;2022-12-17T00:45:55;53.80;;;26.15;;
40827;SDS011;26549;50.918;5.338;2022-12-17T00:48:40;58.58;;;27.58;;
40827;SDS011;26549;50.918;5.338;2022-12-17T00:51:24;53.80;;;26.58;;
40827;SDS011;26549;50.918;5.338;2022-12-17T00:54:09;52.60;;;26.33;;
40827;SDS011;26549;50.918;5.338;2022-12-17T00:56:54;52.25;;;26.02;;
40827;SDS011;26549;50.918;5.338;2022-12-17T00:59:38;57.80;;;28.02;;
40827;SDS011;26549;50.918;5.338;2022-12-17T01:02:23;55.78;;;25.00;;
40827;SDS011;26549;50.918;5.338;2022-12-17T01:05:08;53.85;;;25.23;;
40827;SDS011;26549;50.918;5.338;2022-12-17T01:07:53;51.97;;;26.50;;
40827;SDS011;26549;50.918;5.338;2022-12-17T01:10:38;58.67;;;27.48;;
40827;SDS011;26549;50.918;5.338;2022-12-17T01:13:22;49.83;;;24.60;;
40827;SDS011;26549;50.918;5.338;2022-12-17T01:16:08;59.83;;;25.95;;
40827;SDS011;26549;50.918;5.338;2022-12-17T01:18:54;52.92;;;27.48;;
40827;SDS011;26549;50.918;5.338;2022-12-17T01:21:39;52.03;;;24.73;;
40827;SDS011;26549;50.918;5.338;2022-12-17T01:24:23;58.63;;;27.33;;
40827;SDS011;26549;50.918;5.338;2022-12-17T01:27:08;52.15;;;26.15;;
40827;SDS011;26549;50.918;5.338;2022-12-17T01:32:38;56.22;;;25.00;;
40827;SDS011;26549;50.918;5.338;2022-12-17T01:35:22;50.28;;;25.30;;
40827;SDS011;26549;50.918;5.338;2022-12-17T01:38:14;58.05;;;27.67;;
40827;SDS011;26549;50.918;5.338;2022-12-17T01:41:02;52.80;;;24.60;;
40827;SDS011;26549;50.918;5.338;2022-12-17T01:43:48;48.35;;;23.13;;
40827;SDS011;26549;50.918;5.338;2022-12-17T01:46:34;54.67;;;25.80;;
40827;SDS011;26549;50.918;5.338;2022-12-17T01:49:20;48.97;;;24.27;;
40827;SDS011;26549;50.918;5.338;2022-12-17T01:52:07;60.95;;;25.42;;
40827;SDS011;26549;50.918;5.338;2022-12-17T01:54:54;60.78;;;25.35;;
40827;SDS011;26549;50.918;5.338;2022-12-17T01:57:39;49.80;;;24.23;;
40827;SDS011;26549;50.918;5.338;2022-12-17T02:00:24;49.13;;;24.60;;
40827;SDS011;26549;50.918;5.338;2022-12-17T02:03:14;51.00;;;23.35;;
40827;SDS011;26549;50.918;5.338;2022-12-17T02:09:21;53.65;;;25.30;;
40827;SDS011;26549;50.918;5.338;2022-12-17T02:12:29;59.65;;;25.35;;
40827;SDS011;26549;50.918;5.338;2022-12-17T02:15:21;47.05;;;24.17;;
40827;SDS011;26549;50.918;5.338;2022-12-17T02:18:24;44.85;;;24.83;;
40827;SDS011;26549;50.918;5.338;2022-12-17T02:21:14;50.00;;;24.42;;
40827;SDS011;26549;50.918;5.338;2022-12-17T02:24:02;57.63;;;26.33;;
40827;SDS011;26549;50.918;5.338;2022-12-17T02:26:51;51.65;;;23.73;;
40827;SDS011;26549;50.918;5.338;2022-12-17T02:29:43;50.20;;;22.13;;
40827;SDS011;26549;50.918;5.338;2022-12-17T02:32:32;49.58;;;23.30;;
40827;SDS011;26549;50.918;5.338;2022-12-17T02:35:24;50.35;;;23.08;;
40827;SDS011;26549;50.918;5.338;2022-12-17T02:38:20;46.15;;;23.98;;
40827;SDS011;26549;50.918;5.338;2022-12-17T02:41:19;52.17;;;23.50;;
40827;SDS011;26549;50.918;5.338;2022-12-17T02:44:16;49.42;;;24.20;;
40827;SDS011;26549;50.918;5.338;2022-12-17T02:47:03;53.08;;;24.50;;
40827;SDS011;26549;50.918;5.338;2022-12-17T02:49:50;61.58;;;26.48;;
40827;SDS011;26549;50.918;5.338;2022-12-17T02:52:35;56.03;;;23.02;;
40827;SDS011;26549;50.918;5.338;2022-12-17T02:55:22;49.97;;;23.27;;
40827;SDS011;26549;50.918;5.338;2022-12-17T02:58:06;50.38;;;23.08;;
40827;SDS011;26549;50.918;5.338;2022-12-17T03:00:51;48.47;;;25.42;;
40827;SDS011;26549;50.918;5.338;2022-12-17T03:03:35;46.65;;;24.52;;
40827;SDS011;26549;50.918;5.338;2022-12-17T03:06:20;49.65;;;24.17;;
40827;SDS011;26549;50.918;5.338;2022-12-17T03:09:04;51.90;;;23.58;;
40827;SDS011;26549;50.918;5.338;2022-12-17T03:11:48;47.50;;;21.95;;
40827;SDS011;26549;50.918;5.338;2022-12-17T03:14:32;45.92;;;23.35;;
40827;SDS011;26549;50.918;5.338;2022-12-17T03:17:16;41.67;;;22.95;;
40827;SDS011;26549;50.918;5.338;2022-12-17T03:20:00;51.58;;;23.48;;
40827;SDS011;26549;50.918;5.338;2022-12-17T03:22:44;48.15;;;23.20;;
40827;SDS011;26549;50.918;5.338;2022-12-17T03:25:29;53.55;;;25.17;;
40827;SDS011;26549;50.918;5.338;2022-12-17T03:28:14;45.58;;;22.63;;
40827;SDS011;26549;50.918;5.338;2022-12-17T03:31:00;59.70;;;25.13;;
40827;SDS011;26549;50.918;5.338;2022-12-17T03:36:29;48.85;;;21.40;;
40827;SDS011;26549;50.918;5.338;2022-12-17T03:39:13;52.78;;;23.63;;
40827;SDS011;26549;50.918;5.338;2022-12-17T03:41:58;49.13;;;21.80;;
40827;SDS011;26549;50.918;5.338;2022-12-17T03:44:42;47.33;;;23.13;;
40827;SDS011;26549;50.918;5.338;2022-12-17T03:47:26;43.70;;;21.00;;
40827;SDS011;26549;50.918;5.338;2022-12-17T03:50:11;50.45;;;25.25;;
40827;SDS011;26549;50.918;5.338;2022-12-17T03:52:55;44.63;;;21.92;;
40827;SDS011;26549;50.918;5.338;2022-12-17T03:55:39;43.05;;;22.98;;
40827;SDS011;26549;50.918;5.338;2022-12-17T03:58:23;51.78;;;25.50;;
40827;SDS011;26549;50.918;5.338;2022-12-17T04:01:07;46.70;;;22.92;;
40827;SDS011;26549;50.918;5.338;2022-12-17T04:03:51;53.63;;;24.92;;
40827;SDS011;26549;50.918;5.338;2022-12-17T04:06:35;46.78;;;25.10;;
40827;SDS011;26549;50.918;5.338;2022-12-17T04:09:19;44.85;;;23.55;;
40827;SDS011;26549;50.918;5.338;2022-12-17T04:12:04;46.33;;;23.90;;
40827;SDS011;26549;50.918;5.338;2022-12-17T04:14:48;54.30;;;25.50;;
40827;SDS011;26549;50.918;5.338;2022-12-17T04:17:33;50.60;;;24.35;;
40827;SDS011;26549;50.918;5.338;2022-12-17T04:20:17;48.30;;;23.05;;
40827;SDS011;26549;50.918;5.338;2022-12-17T04:23:02;47.80;;;20.23;;
40827;SDS011;26549;50.918;5.338;2022-12-17T04:25:46;47.42;;;23.55;;
40827;SDS011;26549;50.918;5.338;2022-12-17T04:28:30;41.88;;;21.85;;
40827;SDS011;26549;50.918;5.338;2022-12-17T04:31:15;50.70;;;23.13;;
40827;SDS011;26549;50.918;5.338;2022-12-17T04:33:59;43.80;;;21.90;;
40827;SDS011;26549;50.918;5.338;2022-12-17T04:36:43;45.70;;;21.52;;
40827;SDS011;26549;50.918;5.338;2022-12-17T04:39:28;48.58;;;23.50;;
40827;SDS011;26549;50.918;5.338;2022-12-17T04:42:12;47.65;;;23.10;;
40827;SDS011;26549;50.918;5.338;2022-12-17T04:44:56;42.85;;;21.67;;
40827;SDS011;26549;50.918;5.338;2022-12-17T04:47:40;44.22;;;21.50;;
40827;SDS011;26549;50.918;5.338;2022-12-17T04:50:25;42.17;;;21.65;;
40827;SDS011;26549;50.918;5.338;2022-12-17T04:53:09;42.42;;;22.70;;
40827;SDS011;26549;50.918;5.338;2022-12-17T04:55:54;51.13;;;23.73;;
40827;SDS011;26549;50.918;5.338;2022-12-17T04:58:38;47.15;;;23.58;;
40827;SDS011;26549;50.918;5.338;2022-12-17T05:01:22;46.60;;;22.73;;
40827;SDS011;26549;50.918;5.338;2022-12-17T05:04:06;48.17;;;24.08;;
40827;SDS011;26549;50.918;5.338;2022-12-17T05:06:51;48.45;;;26.05;;
40827;SDS011;26549;50.918;5.338;2022-12-17T05:09:35;51.03;;;22.42;;
40827;SDS011;26549;50.918;5.338;2022-12-17T05:12:20;42.25;;;22.30;;
40827;SDS011;26549;50.918;5.338;2022-12-17T05:15:04;41.22;;;23.42;;
40827;SDS011;26549;50.918;5.338;2022-12-17T05:17:49;55.10;;;23.73;;
40827;SDS011;26549;50.918;5.338;2022-12-17T05:20:34;53.40;;;24.00;;
40827;SDS011;26549;50.918;5.338;2022-12-17T05:23:18;43.92;;;22.83;;
40827;SDS011;26549;50.918;5.338;2022-12-17T05:26:03;44.25;;;23.48;;
40827;SDS011;26549;50.918;5.338;2022-12-17T05:28:53;48.55;;;24.15;;
40827;SDS011;26549;50.918;5.338;2022-12-17T05:31:48;56.42;;;24.15;;
40827;SDS011;26549;50.918;5.338;2022-12-17T05:34:33;55.27;;;24.57;;
40827;SDS011;26549;50.918;5.338;2022-12-17T05:37:18;56.08;;;26.55;;
40827;SDS011;26549;50.918;5.338;2022-12-17T05:40:03;64.88;;;27.13;;
40827;SDS011;26549;50.918;5.338;2022-12-17T05:43:01;56.40;;;25.30;;
40827;SDS011;26549;50.918;5.338;2022-12-17T05:45:47;67.43;;;29.25;;
40827;SDS011;26549;50.918;5.338;2022-12-17T05:48:32;72.80;;;27.20;;
40827;SDS011;26549;50.918;5.338;2022-12-17T05:51:17;73.57;;;26.35;;
40827;SDS011;26549;50.918;5.338;2022-12-17T05:54:01;63.78;;;26.80;;
40827;SDS011;26549;50.918;5.338;2022-12-17T05:56:45;65.28;;;26.63;;
40827;SDS011;26549;50.918;5.338;2022-12-17T05:59:30;68.50;;;27.65;;
40827;SDS011;26549;50.918;5.338;2022-12-17T06:02:15;64.22;;;29.25;;
40827;SDS011;26549;50.918;5.338;2022-12-17T06:04:59;61.10;;;28.23;;
40827;SDS011;26549;50.918;5.338;2022-12-17T06:07:43;76.97;;;30.00;;
40827;SDS011;26549;50.918;5.338;2022-12-17T06:10:27;66.85;;;25.70;;
40827;SDS011;26549;50.918;5.338;2022-12-17T06:13:12;76.80;;;30.02;;
40827;SDS011;26549;50.918;5.338;2022-12-17T06:15:56;71.75;;;28.83;;
40827;SDS011;26549;50.918;5.338;2022-12-17T06:18:40;79.18;;;33.53;;
40827;SDS011;26549;50.918;5.338;2022-12-17T06:21:25;70.13;;;27.10;;
40827;SDS011;26549;50.918;5.338;2022-12-17T06:24:10;66.68;;;28.17;;
40827;SDS011;26549;50.918;5.338;2022-12-17T06:26:55;73.33;;;30.20;;
40827;SDS011;26549;50.918;5.338;2022-12-17T06:29:41;69.60;;;30.20;;
40827;SDS011;26549;50.918;5.338;2022-12-17T06:32:25;74.78;;;28.83;;
40827;SDS011;26549;50.918;5.338;2022-12-17T06:35:09;67.45;;;29.65;;
40827;SDS011;26549;50.918;5.338;2022-12-17T06:38:05;69.32;;;28.60;;
40827;SDS011;26549;50.918;5.338;2022-12-17T06:40:52;70.40;;;27.60;;
40827;SDS011;26549;50.918;5.338;2022-12-17T06:43:36;77.75;;;30.17;;
40827;SDS011;26549;50.918;5.338;2022-12-17T06:46:21;63.65;;;29.33;;
40827;SDS011;26549;50.918;5.338;2022-12-17T06:49:07;68.25;;;28.02;;
40827;SDS011;26549;50.918;5.338;2022-12-17T06:54:36;64.85;;;28.63;;
40827;SDS011;26549;50.918;5.338;2022-12-17T06:57:20;72.78;;;28.85;;
40827;SDS011;26549;50.918;5.338;2022-12-17T07:00:04;65.50;;;25.83;;
40827;SDS011;26549;50.918;5.338;2022-12-17T07:02:57;65.63;;;28.30;;
40827;SDS011;26549;50.918;5.338;2022-12-17T07:05:41;60.63;;;25.85;;
40827;SDS011;26549;50.918;5.338;2022-12-17T07:08:26;67.95;;;28.85;;
40827;SDS011;26549;50.918;5.338;2022-12-17T07:11:12;57.73;;;26.10;;
40827;SDS011;26549;50.918;5.338;2022-12-17T07:13:56;55.28;;;27.58;;
40827;SDS011;26549;50.918;5.338;2022-12-17T07:16:40;52.20;;;23.92;;
40827;SDS011;26549;50.918;5.338;2022-12-17T07:19:25;53.38;;;24.42;;
40827;SDS011;26549;50.918;5.338;2022-12-17T07:22:10;53.65;;;25.05;;
40827;SDS011;26549;50.918;5.338;2022-12-17T07:24:54;51.45;;;25.13;;
40827;SDS011;26549;50.918;5.338;2022-12-17T07:27:38;54.83;;;23.98;;
40827;SDS011;26549;50.918;5.338;2022-12-17T07:30:22;65.93;;;28.05;;
40827;SDS011;26549;50.918;5.338;2022-12-17T07:33:08;60.58;;;25.75;;
40827;SDS011;26549;50.918;5.338;2022-12-17T07:38:37;57.80;;;27.10;;
40827;SDS011;26549;50.918;5.338;2022-12-17T07:41:22;66.05;;;27.70;;
40827;SDS011;26549;50.918;5.338;2022-12-17T07:44:06;61.72;;;26.95;;
40827;SDS011;26549;50.918;5.338;2022-12-17T07:46:50;62.30;;;26.25;;
40827;SDS011;26549;50.918;5.338;2022-12-17T07:49:34;63.33;;;28.17;;
40827;SDS011;26549;50.918;5.338;2022-12-17T07:52:19;64.57;;;26.00;;
40827;SDS011;26549;50.918;5.338;2022-12-17T07:55:03;57.63;;;26.77;;
40827;SDS011;26549;50.918;5.338;2022-12-17T07:57:56;75.65;;;30.40;;
40827;SDS011;26549;50.918;5.338;2022-12-17T08:00:44;75.47;;;30.17;;
40827;SDS011;26549;50.918;5.338;2022-12-17T08:03:29;74.80;;;27.65;;
40827;SDS011;26549;50.918;5.338;2022-12-17T08:06:15;61.30;;;26.90;;
40827;SDS011;26549;50.918;5.338;2022-12-17T08:08:59;68.50;;;28.42;;
40827;SDS011;26549;50.918;5.338;2022-12-17T08:11:43;65.75;;;27.55;;
40827;SDS011;26549;50.918;5.338;2022-12-17T08:14:27;63.95;;;27.48;;
40827;SDS011;26549;50.918;5.338;2022-12-17T08:17:13;71.43;;;29.48;;
40827;SDS011;26549;50.918;5.338;2022-12-17T08:19:57;65.03;;;29.95;;
40827;SDS011;26549;50.918;5.338;2022-12-17T08:22:41;68.07;;;28.13;;
40827;SDS011;26549;50.918;5.338;2022-12-17T08:25:26;66.13;;;27.35;;
40827;SDS011;26549;50.918;5.338;2022-12-17T08:28:10;60.63;;;25.75;;
40827;SDS011;26549;50.918;5.338;2022-12-17T08:30:54;64.40;;;27.67;;
40827;SDS011;26549;50.918;5.338;2022-12-17T08:33:38;60.65;;;25.40;;
40827;SDS011;26549;50.918;5.338;2022-12-17T08:36:22;78.20;;;27.60;;
40827;SDS011;26549;50.918;5.338;2022-12-17T08:39:06;67.35;;;27.38;;
40827;SDS011;26549;50.918;5.338;2022-12-17T08:41:50;70.03;;;28.42;;
40827;SDS011;26549;50.918;5.338;2022-12-17T08:44:35;57.17;;;25.65;;
40827;SDS011;26549;50.918;5.338;2022-12-17T08:47:19;61.75;;;24.15;;
40827;SDS011;26549;50.918;5.338;2022-12-17T08:50:03;58.38;;;23.55;;
40827;SDS011;26549;50.918;5.338;2022-12-17T08:52:55;60.47;;;25.27;;
40827;SDS011;26549;50.918;5.338;2022-12-17T08:55:42;63.40;;;24.02;;
40827;SDS011;26549;50.918;5.338;2022-12-17T08:58:27;61.97;;;23.67;;
40827;SDS011;26549;50.918;5.338;2022-12-17T09:01:12;66.75;;;24.48;;
40827;SDS011;26549;50.918;5.338;2022-12-17T09:03:56;63.05;;;26.13;;
40827;SDS011;26549;50.918;5.338;2022-12-17T09:06:40;58.35;;;26.83;;
40827;SDS011;26549;50.918;5.338;2022-12-17T09:09:24;59.17;;;24.95;;
40827;SDS011;26549;50.918;5.338;2022-12-17T09:12:08;59.90;;;24.15;;
40827;SDS011;26549;50.918;5.338;2022-12-17T09:14:52;57.10;;;23.10;;
40827;SDS011;26549;50.918;5.338;2022-12-17T09:17:37;52.95;;;22.40;;
40827;SDS011;26549;50.918;5.338;2022-12-17T09:20:21;60.90;;;24.25;;
40827;SDS011;26549;50.918;5.338;2022-12-17T09:23:05;60.13;;;23.73;;
40827;SDS011;26549;50.918;5.338;2022-12-17T09:25:53;48.45;;;22.00;;
40827;SDS011;26549;50.918;5.338;2022-12-17T09:28:38;49.03;;;22.02;;
40827;SDS011;26549;50.918;5.338;2022-12-17T09:31:23;54.63;;;23.27;;
40827;SDS011;26549;50.918;5.338;2022-12-17T09:34:07;53.75;;;24.17;;
40827;SDS011;26549;50.918;5.338;2022-12-17T09:37:02;52.15;;;23.30;;
40827;SDS011;26549;50.918;5.338;2022-12-17T09:39:47;56.50;;;24.52;;
40827;SDS011;26549;50.918;5.338;2022-12-17T09:48:26;51.95;;;20.90;;
40827;SDS011;26549;50.918;5.338;2022-12-17T09:51:24;48.08;;;21.88;;
40827;SDS011;26549;50.918;5.338;2022-12-17T09:54:27;51.97;;;21.45;;
40827;SDS011;26549;50.918;5.338;2022-12-17T09:57:21;50.70;;;23.27;;
40827;SDS011;26549;50.918;5.338;2022-12-17T10:02:58;50.45;;;20.98;;
40827;SDS011;26549;50.918;5.338;2022-12-17T10:08:29;46.83;;;21.65;;
40827;SDS011;26549;50.918;5.338;2022-12-17T10:11:23;52.35;;;23.95;;
40827;SDS011;26549;50.918;5.338;2022-12-17T10:14:13;52.70;;;22.92;;
40827;SDS011;26549;50.918;5.338;2022-12-17T10:17:00;53.60;;;24.17;;
40827;SDS011;26549;50.918;5.338;2022-12-17T10:20:27;45.88;;;21.65;;
40827;SDS011;26549;50.918;5.338;2022-12-17T10:23:23;52.47;;;23.65;;
40827;SDS011;26549;50.918;5.338;2022-12-17T10:26:18;56.83;;;25.95;;
40827;SDS011;26549;50.918;5.338;2022-12-17T10:29:09;52.55;;;24.70;;
40827;SDS011;26549;50.918;5.338;2022-12-17T10:31:57;54.53;;;24.40;;
40827;SDS011;26549;50.918;5.338;2022-12-17T10:34:44;56.58;;;25.88;;
40827;SDS011;26549;50.918;5.338;2022-12-17T10:37:29;49.58;;;22.58;;
40827;SDS011;26549;50.918;5.338;2022-12-17T10:40:26;46.78;;;24.40;;
40827;SDS011;26549;50.918;5.338;2022-12-17T10:43:22;52.55;;;26.42;;
40827;SDS011;26549;50.918;5.338;2022-12-17T10:46:20;51.03;;;22.67;;
40827;SDS011;26549;50.918;5.338;2022-12-17T10:49:11;52.10;;;24.50;;
40827;SDS011;26549;50.918;5.338;2022-12-17T10:52:01;48.95;;;24.75;;
40827;SDS011;26549;50.918;5.338;2022-12-17T10:54:55;53.15;;;26.17;;
40827;SDS011;26549;50.918;5.338;2022-12-17T10:57:43;49.25;;;22.55;;
40827;SDS011;26549;50.918;5.338;2022-12-17T11:00:32;48.88;;;24.27;;
40827;SDS011;26549;50.918;5.338;2022-12-17T11:03:26;53.42;;;22.33;;
40827;SDS011;26549;50.918;5.338;2022-12-17T11:06:12;50.38;;;23.67;;
40827;SDS011;26549;50.918;5.338;2022-12-17T11:09:01;54.42;;;23.23;;
40827;SDS011;26549;50.918;5.338;2022-12-17T11:11:45;54.78;;;25.90;;
40827;SDS011;26549;50.918;5.338;2022-12-17T11:14:31;46.88;;;23.55;;
40827;SDS011;26549;50.918;5.338;2022-12-17T11:17:31;47.42;;;21.98;;
40827;SDS011;26549;50.918;5.338;2022-12-17T11:20:23;44.65;;;22.10;;
40827;SDS011;26549;50.918;5.338;2022-12-17T11:23:17;50.22;;;24.05;;
40827;SDS011;26549;50.918;5.338;2022-12-17T11:26:05;44.22;;;21.42;;
40827;SDS011;26549;50.918;5.338;2022-12-17T11:28:57;46.40;;;21.15;;
40827;SDS011;26549;50.918;5.338;2022-12-17T11:41:00;42.95;;;23.20;;
40827;SDS011;26549;50.918;5.338;2022-12-17T11:44:01;49.47;;;24.17;;
40827;SDS011;26549;50.918;5.338;2022-12-17T11:46:54;47.83;;;22.52;;
40827;SDS011;26549;50.918;5.338;2022-12-17T11:50:01;55.10;;;24.58;;
40827;SDS011;26549;50.918;5.338;2022-12-17T11:53:04;49.60;;;24.08;;
40827;SDS011;26549;50.918;5.338;2022-12-17T11:58:50;47.90;;;23.60;;
40827;SDS011;26549;50.918;5.338;2022-12-17T12:05:20;52.22;;;24.52;;
40827;SDS011;26549;50.918;5.338;2022-12-17T12:14:19;48.70;;;22.90;;
40827;SDS011;26549;50.918;5.338;2022-12-17T12:17:09;44.67;;;22.30;;
40827;SDS011;26549;50.918;5.338;2022-12-17T12:20:07;47.97;;;23.00;;
40827;SDS011;26549;50.918;5.338;2022-12-17T12:26:22;47.42;;;23.75;;
40827;SDS011;26549;50.918;5.338;2022-12-17T12:32:25;52.58;;;23.38;;
40827;SDS011;26549;50.918;5.338;2022-12-17T12:35:14;53.85;;;24.60;;
40827;SDS011;26549;50.918;5.338;2022-12-17T12:38:03;53.35;;;24.38;;
40827;SDS011;26549;50.918;5.338;2022-12-17T12:43:38;54.03;;;25.25;;
40827;SDS011;26549;50.918;5.338;2022-12-17T12:46:40;54.72;;;27.88;;
40827;SDS011;26549;50.918;5.338;2022-12-17T12:52:19;52.72;;;24.85;;
40827;SDS011;26549;50.918;5.338;2022-12-17T12:55:05;47.20;;;23.98;;
40827;SDS011;26549;50.918;5.338;2022-12-17T12:58:03;52.63;;;25.55;;
40827;SDS011;26549;50.918;5.338;2022-12-17T13:16:55;53.28;;;26.20;;
40827;SDS011;26549;50.918;5.338;2022-12-17T13:19:35;53.45;;;25.77;;
40827;SDS011;26549;50.918;5.338;2022-12-17T13:24:41;54.25;;;25.35;;
40827;SDS011;26549;50.918;5.338;2022-12-17T13:29:52;47.15;;;23.90;;
40827;SDS011;26549;50.918;5.338;2022-12-17T13:32:21;48.47;;;23.38;;
40827;SDS011;26549;50.918;5.338;2022-12-17T13:43:30;55.38;;;24.00;;
40827;SDS011;26549;50.918;5.338;2022-12-17T13:45:59;46.20;;;24.08;;
40827;SDS011;26549;50.918;5.338;2022-12-17T13:48:26;51.85;;;25.42;;
40827;SDS011;26549;50.918;5.338;2022-12-17T13:50:53;50.35;;;23.45;;
40827;SDS011;26549;50.918;5.338;2022-12-17T13:53:22;49.88;;;24.23;;
40827;SDS011;26549;50.918;5.338;2022-12-17T13:55:51;50.42;;;24.23;;
40827;SDS011;26549;50.918;5.338;2022-12-17T13:58:23;41.35;;;21.50;;
40827;SDS011;26549;50.918;5.338;2022-12-17T14:01:09;44.67;;;22.33;;
40827;SDS011;26549;50.918;5.338;2022-12-17T14:03:36;44.22;;;23.13;;
40827;SDS011;26549;50.918;5.338;2022-12-17T14:06:06;51.92;;;24.63;;
40827;SDS011;26549;50.918;5.338;2022-12-17T14:08:36;48.60;;;23.40;;
40827;SDS011;26549;50.918;5.338;2022-12-17T14:11:02;44.70;;;23.17;;
40827;SDS011;26549;50.918;5.338;2022-12-17T14:13:47;48.20;;;22.88;;
40827;SDS011;26549;50.918;5.338;2022-12-17T14:16:18;45.17;;;22.80;;
40827;SDS011;26549;50.918;5.338;2022-12-17T14:18:47;51.55;;;22.88;;
40827;SDS011;26549;50.918;5.338;2022-12-17T14:21:21;51.33;;;22.63;;
40827;SDS011;26549;50.918;5.338;2022-12-17T14:23:49;51.15;;;25.17;;
40827;SDS011;26549;50.918;5.338;2022-12-17T14:26:16;48.88;;;24.27;;
40827;SDS011;26549;50.918;5.338;2022-12-17T14:28:52;52.30;;;23.85;;
40827;SDS011;26549;50.918;5.338;2022-12-17T14:31:21;51.08;;;24.25;;
40827;SDS011;26549;50.918;5.338;2022-12-17T14:36:38;52.28;;;24.23;;
40827;SDS011;26549;50.918;5.338;2022-12-17T14:39:29;51.88;;;24.35;;
40827;SDS011;26549;50.918;5.338;2022-12-17T14:41:58;46.67;;;22.52;;
40827;SDS011;26549;50.918;5.338;2022-12-17T14:45:00;56.05;;;26.05;;
40827;SDS011;26549;50.918;5.338;2022-12-17T14:47:33;52.28;;;24.95;;
40827;SDS011;26549;50.918;5.338;2022-12-17T14:52:37;50.92;;;24.52;;
40827;SDS011;26549;50.918;5.338;2022-12-17T14:55:22;46.83;;;22.25;;
40827;SDS011;26549;50.918;5.338;2022-12-17T15:00:32;49.38;;;24.27;;
40827;SDS011;26549;50.918;5.338;2022-12-17T15:03:00;48.97;;;23.90;;
40827;SDS011;26549;50.918;5.338;2022-12-17T15:05:27;53.00;;;24.33;;
40827;SDS011;26549;50.918;5.338;2022-12-17T15:07:53;46.85;;;22.92;;
40827;SDS011;26549;50.918;5.338;2022-12-17T15:10:22;47.80;;;24.73;;
40827;SDS011;26549;50.918;5.338;2022-12-17T15:12:50;42.15;;;22.05;;
40827;SDS011;26549;50.918;5.338;2022-12-17T15:15:17;50.15;;;23.55;;
40827;SDS011;26549;50.918;5.338;2022-12-17T15:17:46;45.35;;;23.45;;
40827;SDS011;26549;50.918;5.338;2022-12-17T15:20:16;46.15;;;23.38;;
40827;SDS011;26549;50.918;5.338;2022-12-17T15:22:43;42.53;;;22.25;;
40827;SDS011;26549;50.918;5.338;2022-12-17T15:25:13;50.17;;;24.50;;
40827;SDS011;26549;50.918;5.338;2022-12-17T15:27:42;46.88;;;23.77;;
40827;SDS011;26549;50.918;5.338;2022-12-17T15:30:14;40.13;;;20.50;;
40827;SDS011;26549;50.918;5.338;2022-12-17T15:32:41;50.67;;;23.95;;
40827;SDS011;26549;50.918;5.338;2022-12-17T15:35:08;43.42;;;20.15;;
40827;SDS011;26549;50.918;5.338;2022-12-17T15:37:35;49.92;;;23.15;;
40827;SDS011;26549;50.918;5.338;2022-12-17T15:40:02;52.97;;;24.30;;
40827;SDS011;26549;50.918;5.338;2022-12-17T15:42:30;49.58;;;23.42;;
40827;SDS011;26549;50.918;5.338;2022-12-17T15:45:14;47.37;;;24.27;;
40827;SDS011;26549;50.918;5.338;2022-12-17T15:47:40;45.60;;;21.90;;
40827;SDS011;26549;50.918;5.338;2022-12-17T15:50:06;45.40;;;22.77;;
40827;SDS011;26549;50.918;5.338;2022-12-17T15:52:34;49.25;;;23.38;;
40827;SDS011;26549;50.918;5.338;2022-12-17T15:55:01;47.05;;;21.95;;
40827;SDS011;26549;50.918;5.338;2022-12-17T15:57:26;42.53;;;23.73;;
40827;SDS011;26549;50.918;5.338;2022-12-17T15:59:52;47.88;;;23.55;;
40827;SDS011;26549;50.918;5.338;2022-12-17T16:02:20;52.65;;;25.52;;
40827;SDS011;26549;50.918;5.338;2022-12-17T16:04:46;48.63;;;24.60;;
40827;SDS011;26549;50.918;5.338;2022-12-17T16:07:13;55.40;;;25.17;;
40827;SDS011;26549;50.918;5.338;2022-12-17T16:09:39;61.25;;;30.77;;
40827;SDS011;26549;50.918;5.338;2022-12-17T16:12:05;56.28;;;26.88;;
40827;SDS011;26549;50.918;5.338;2022-12-17T16:14:31;54.47;;;29.90;;
40827;SDS011;26549;50.918;5.338;2022-12-17T16:16:57;55.17;;;26.08;;
40827;SDS011;26549;50.918;5.338;2022-12-17T16:19:24;47.95;;;26.10;;
40827;SDS011;26549;50.918;5.338;2022-12-17T16:21:50;51.53;;;24.98;;
40827;SDS011;26549;50.918;5.338;2022-12-17T16:24:16;53.88;;;26.65;;
40827;SDS011;26549;50.918;5.338;2022-12-17T16:26:42;53.33;;;28.40;;
40827;SDS011;26549;50.918;5.338;2022-12-17T16:29:08;58.95;;;27.73;;
40827;SDS011;26549;50.918;5.338;2022-12-17T16:31:34;57.83;;;29.38;;
40827;SDS011;26549;50.918;5.338;2022-12-17T16:34:01;63.95;;;31.42;;
40827;SDS011;26549;50.918;5.338;2022-12-17T16:36:27;61.85;;;31.60;;
40827;SDS011;26549;50.918;5.338;2022-12-17T16:38:53;62.90;;;31.33;;
40827;SDS011;26549;50.918;5.338;2022-12-17T16:41:19;57.38;;;27.90;;
40827;SDS011;26549;50.918;5.338;2022-12-17T16:43:46;54.78;;;29.85;;
40827;SDS011;26549;50.918;5.338;2022-12-17T16:48:52;70.18;;;34.78;;
40827;SDS011;26549;50.918;5.338;2022-12-17T16:51:20;68.03;;;30.70;;
40827;SDS011;26549;50.918;5.338;2022-12-17T16:53:47;65.10;;;29.65;;
40827;SDS011;26549;50.918;5.338;2022-12-17T16:56:20;66.65;;;31.08;;
40827;SDS011;26549;50.918;5.338;2022-12-17T16:58:47;65.00;;;32.67;;
40827;SDS011;26549;50.918;5.338;2022-12-17T17:01:17;65.82;;;33.20;;
40827;SDS011;26549;50.918;5.338;2022-12-17T17:03:44;73.70;;;34.25;;
40827;SDS011;26549;50.918;5.338;2022-12-17T17:06:10;73.18;;;35.72;;
40827;SDS011;26549;50.918;5.338;2022-12-17T17:08:36;68.07;;;34.47;;
40827;SDS011;26549;50.918;5.338;2022-12-17T17:11:07;66.90;;;33.22;;
40827;SDS011;26549;50.918;5.338;2022-12-17T17:13:49;71.68;;;32.97;;
40827;SDS011;26549;50.918;5.338;2022-12-17T17:16:21;67.53;;;30.80;;
40827;SDS011;26549;50.918;5.338;2022-12-17T17:18:49;76.97;;;34.30;;
40827;SDS011;26549;50.918;5.338;2022-12-17T17:23:48;67.55;;;30.55;;
40827;SDS011;26549;50.918;5.338;2022-12-17T17:26:19;73.65;;;35.75;;
40827;SDS011;26549;50.918;5.338;2022-12-17T17:28:46;62.92;;;31.50;;
40827;SDS011;26549;50.918;5.338;2022-12-17T17:31:12;69.75;;;32.15;;
40827;SDS011;26549;50.918;5.338;2022-12-17T17:33:40;80.30;;;35.45;;
40827;SDS011;26549;50.918;5.338;2022-12-17T17:36:09;67.68;;;31.35;;